createdAt,value
2023-02-25T00:01:35.828Z,83.37
2023-02-25T00:04:02.678Z,84.16
2023-02-25T00:06:29.402Z,83.25
2023-02-25T00:09:02.271Z,83.49
2023-02-25T00:11:29.114Z,83.24
2023-02-25T00:13:55.687Z,83.79
2023-02-25T00:16:23.911Z,83.32
2023-02-25T00:18:57.954Z,83.65
2023-02-25T00:21:25.312Z,82.87
2023-02-25T00:23:51.966Z,82.44
2023-02-25T00:26:18.609Z,83.47
2023-02-25T00:28:46.559Z,83.46
2023-02-25T00:31:17.417Z,83.26
2023-02-25T00:33:44.544Z,82.31
2023-02-25T00:36:16.744Z,83.25
2023-02-25T00:38:43.350Z,82.89
2023-02-25T00:41:11.385Z,82.47
2023-02-25T00:43:40.650Z,82.05
2023-02-25T00:46:12.874Z,82.81
2023-02-25T00:48:39.978Z,82.63
2023-02-25T00:51:08.201Z,82.02
2023-02-25T00:53:35.231Z,83.00
2023-02-25T00:56:02.479Z,83.42
2023-02-25T00:58:29.296Z,82.98
2023-02-25T01:00:56.398Z,83.72
2023-02-25T01:03:23.739Z,83.38
2023-02-25T01:05:50.864Z,83.02
2023-02-25T01:08:19.929Z,82.61
2023-02-25T01:10:47.497Z,82.93
2023-02-25T01:13:15.676Z,83.82
2023-02-25T01:15:42.549Z,83.00
2023-02-25T01:18:09.254Z,84.08
2023-02-25T01:20:40.086Z,83.92
2023-02-25T01:23:07.134Z,83.42
2023-02-25T01:25:33.804Z,84.34
2023-02-25T01:28:00.611Z,83.84
2023-02-25T01:30:27.240Z,84.35
2023-02-25T01:32:56.540Z,84.46
2023-02-25T01:35:23.488Z,84.03
2023-02-25T01:37:51.016Z,84.72
2023-02-25T01:40:18.269Z,84.59
2023-02-25T01:42:46.390Z,84.73
2023-02-25T01:45:18.971Z,84.84
2023-02-25T01:47:51.336Z,85.16
2023-02-25T01:50:21.298Z,84.94
2023-02-25T01:52:50.370Z,85.41
2023-02-25T01:55:17.926Z,85.20
2023-02-25T01:57:44.571Z,84.11
2023-02-25T02:00:11.942Z,84.91
2023-02-25T02:02:40.088Z,83.88
2023-02-25T02:05:08.153Z,84.44
2023-02-25T02:07:34.736Z,85.32
2023-02-25T02:10:01.750Z,85.49
2023-02-25T02:12:33.740Z,85.94
2023-02-25T02:15:03.466Z,85.77
2023-02-25T02:17:47.766Z,84.24
2023-02-25T02:20:24.392Z,84.97
2023-02-25T02:23:12.755Z,84.90
2023-02-25T02:26:03.633Z,84.93
2023-02-25T02:28:35.962Z,84.50
2023-02-25T02:31:20.840Z,84.68
2023-02-25T02:33:56.594Z,85.00
2023-02-25T02:36:39.823Z,85.75
2023-02-25T02:39:09.386Z,86.13
2023-02-25T02:41:53.919Z,86.46
2023-02-25T02:44:26.177Z,86.02
2023-02-25T02:47:28.197Z,84.83
2023-02-25T02:50:03.908Z,84.34
2023-02-25T02:52:35.677Z,84.18
2023-02-25T02:55:08.343Z,84.60
2023-02-25T02:57:38.307Z,84.14
2023-02-25T03:00:12.031Z,84.67
2023-02-25T03:02:43.056Z,84.45
2023-02-25T03:05:15.293Z,83.27
2023-02-25T03:07:52.530Z,83.50
2023-02-25T03:10:21.611Z,84.15
2023-02-25T03:12:49.030Z,83.71
2023-02-25T03:15:16.380Z,83.07
2023-02-25T03:17:50.116Z,83.90
2023-02-25T03:20:31.140Z,83.04
2023-02-25T03:23:03.065Z,82.85
2023-02-25T03:25:42.836Z,83.24
2023-02-25T03:28:29.244Z,83.76
2023-02-25T03:31:11.528Z,83.95
2023-02-25T03:33:45.272Z,84.59
2023-02-25T03:36:18.823Z,83.57
2023-02-25T03:38:51.684Z,83.72
2023-02-25T03:41:21.310Z,84.04
2023-02-25T03:43:56.223Z,82.88
2023-02-25T03:46:24.990Z,83.51
2023-02-25T03:48:53.358Z,83.23
2023-02-25T03:51:27.278Z,83.34
2023-02-25T03:53:54.302Z,82.53
2023-02-25T03:56:26.352Z,82.13
2023-02-25T03:58:53.232Z,82.72
2023-02-25T04:01:30.149Z,82.05
2023-02-25T04:03:56.848Z,82.89
2023-02-25T04:06:24.665Z,81.92
2023-02-25T04:08:52.428Z,81.68
2023-02-25T04:11:19.301Z,80.69
2023-02-25T04:13:47.027Z,81.18
2023-02-25T04:16:14.810Z,81.22
2023-02-25T04:18:41.757Z,81.50
2023-02-25T04:21:09.420Z,82.09
2023-02-25T04:23:36.631Z,81.39
2023-02-25T04:26:03.373Z,81.58
2023-02-25T04:28:30.196Z,81.71
2023-02-25T04:30:56.949Z,82.41
2023-02-25T04:33:23.761Z,82.65
2023-02-25T04:35:51.040Z,81.52
2023-02-25T04:38:17.672Z,82.04
2023-02-25T04:40:44.293Z,82.16
2023-02-25T04:43:11.328Z,82.35
2023-02-25T04:45:37.905Z,82.46
2023-02-25T04:48:05.337Z,81.99
2023-02-25T04:50:31.940Z,82.28
2023-02-25T04:53:00.965Z,83.10
2023-02-25T04:55:28.257Z,83.41
2023-02-25T04:57:54.965Z,82.27
2023-02-25T05:00:23.663Z,82.19
2023-02-25T05:02:50.909Z,82.64
2023-02-25T05:05:17.687Z,81.93
2023-02-25T05:07:44.464Z,81.34
2023-02-25T05:10:12.681Z,80.74
2023-02-25T05:12:39.437Z,81.80
2023-02-25T05:15:06.760Z,81.29
2023-02-25T05:17:33.427Z,81.76
2023-02-25T05:20:00.534Z,81.91
2023-02-25T05:22:28.036Z,81.38
2023-02-25T05:24:54.754Z,82.95
2023-02-25T05:27:22.024Z,83.35
2023-02-25T05:29:48.615Z,83.52
2023-02-25T05:32:15.460Z,83.97
2023-02-25T05:34:42.078Z,84.20
2023-02-25T05:37:08.743Z,83.26
2023-02-25T05:39:35.354Z,82.96
2023-02-25T05:42:02.035Z,82.62
2023-02-25T05:44:28.633Z,83.71
2023-02-25T05:46:55.500Z,83.71
2023-02-25T05:49:22.090Z,83.93
2023-02-25T05:51:49.691Z,83.98
2023-02-25T05:54:16.797Z,84.58
2023-02-25T05:56:46.266Z,84.66
2023-02-25T05:59:12.894Z,83.44
2023-02-25T06:01:39.646Z,83.97
2023-02-25T06:04:06.253Z,83.30
2023-02-25T06:06:33.045Z,83.91
2023-02-25T06:08:59.860Z,83.63
2023-02-25T06:11:29.969Z,84.37
2023-02-25T06:13:58.694Z,84.43
2023-02-25T06:16:26.693Z,84.23
2023-02-25T06:18:53.567Z,83.72
2023-02-25T06:21:20.139Z,83.16
2023-02-25T06:23:47.091Z,84.64
2023-02-25T06:26:14.534Z,84.94
2023-02-25T06:28:41.311Z,85.94
2023-02-25T06:31:13.544Z,86.20
2023-02-25T06:33:40.538Z,86.47
2023-02-25T06:36:08.256Z,85.92
2023-02-25T06:38:35.781Z,86.33
2023-02-25T06:41:28.707Z,85.18
2023-02-25T06:43:55.645Z,84.19
2023-02-25T06:46:26.987Z,84.14
2023-02-25T06:48:54.121Z,84.36
2023-02-25T06:51:20.926Z,83.52
2023-02-25T06:53:47.702Z,84.28
2023-02-25T06:56:15.679Z,84.67
2023-02-25T06:58:42.958Z,84.44
2023-02-25T07:01:11.940Z,84.53
2023-02-25T07:03:38.777Z,82.97
2023-02-25T07:06:06.070Z,83.76
2023-02-25T07:08:32.986Z,83.94
2023-02-25T07:11:17.949Z,83.69
2023-02-25T07:13:48.624Z,82.96
2023-02-25T07:16:16.118Z,82.54
2023-02-25T07:18:43.442Z,83.34
2023-02-25T07:21:11.018Z,83.10
2023-02-25T07:23:38.459Z,83.36
2023-02-25T07:26:06.796Z,83.04
2023-02-25T07:28:33.868Z,83.05
2023-02-25T07:31:09.028Z,82.93
2023-02-25T07:33:35.818Z,81.66
2023-02-25T07:36:02.722Z,81.47
2023-02-25T07:38:29.378Z,81.05
2023-02-25T07:40:55.941Z,80.33
2023-02-25T07:43:22.760Z,80.98
2023-02-25T07:45:50.296Z,81.88
2023-02-25T07:48:16.961Z,81.91
2023-02-25T07:50:43.561Z,83.08
2023-02-25T07:53:10.309Z,82.98
2023-02-25T07:55:36.856Z,84.25
2023-02-25T07:58:04.913Z,85.44
2023-02-25T08:00:32.713Z,85.05
2023-02-25T08:02:59.447Z,84.09
2023-02-25T08:05:26.082Z,83.05
2023-02-25T08:07:52.733Z,83.90
2023-02-25T08:10:19.360Z,83.29
2023-02-25T08:12:46.101Z,83.09
2023-02-25T08:15:13.099Z,83.07
2023-02-25T08:17:39.875Z,83.69
2023-02-25T08:20:07.254Z,83.72
2023-02-25T08:22:33.942Z,83.98
2023-02-25T08:25:00.524Z,82.22
2023-02-25T08:27:27.149Z,88.41
2023-02-25T08:29:53.946Z,93.16
2023-02-25T08:32:20.737Z,94.47
2023-02-25T08:34:50.977Z,93.73
2023-02-25T08:37:17.809Z,93.35
2023-02-25T08:39:44.382Z,91.12
2023-02-25T08:42:11.084Z,88.53
2023-02-25T08:44:38.617Z,87.65
2023-02-25T08:47:05.402Z,87.34
2023-02-25T08:49:32.089Z,86.16
2023-02-25T08:51:59.064Z,84.74
2023-02-25T08:54:25.714Z,84.57
2023-02-25T08:56:52.750Z,84.28
2023-02-25T08:59:19.413Z,83.79
2023-02-25T09:01:46.078Z,82.91
2023-02-25T09:04:23.689Z,83.23
2023-02-25T09:06:51.215Z,82.37
2023-02-25T09:09:19.437Z,82.07
2023-02-25T09:11:47.241Z,82.14
2023-02-25T09:14:14.467Z,81.49
2023-02-25T09:16:41.235Z,80.85
2023-02-25T09:19:08.118Z,79.99
2023-02-25T09:21:34.737Z,79.63
2023-02-25T09:24:01.403Z,78.54
2023-02-25T09:26:28.252Z,79.17
2023-02-25T09:28:54.992Z,80.50
2023-02-25T09:31:21.946Z,83.59
2023-02-25T09:33:49.125Z,83.49
2023-02-25T09:36:18.352Z,81.54
2023-02-25T09:38:46.550Z,81.75
2023-02-25T09:41:28.388Z,82.21
2023-02-25T09:44:02.980Z,81.24
2023-02-25T09:46:31.052Z,80.82
2023-02-25T09:49:05.917Z,79.51
2023-02-25T09:51:52.526Z,79.62
2023-02-25T09:54:31.953Z,76.98
2023-02-25T09:57:01.698Z,77.60
2023-02-25T09:59:29.528Z,76.81
2023-02-25T10:02:03.744Z,76.58
2023-02-25T10:04:46.424Z,75.66
2023-02-25T10:07:22.469Z,73.83
2023-02-25T10:10:10.176Z,73.94
2023-02-25T10:12:43.658Z,74.67
2023-02-25T10:15:29.645Z,73.45
2023-02-25T10:18:14.880Z,72.58
2023-02-25T10:21:08.657Z,72.62
2023-02-25T10:24:06.105Z,71.96
2023-02-25T10:26:39.512Z,71.18
2023-02-25T10:29:12.319Z,72.72
2023-02-25T10:31:42.642Z,74.25
2023-02-25T10:34:21.392Z,76.42
2023-02-25T10:36:54.990Z,75.48
2023-02-25T10:39:23.676Z,76.52
2023-02-25T10:41:50.622Z,78.88
2023-02-25T10:44:17.684Z,81.46
2023-02-25T10:46:55.660Z,83.99
2023-02-25T10:49:25.349Z,85.88
2023-02-25T10:52:07.252Z,87.26
2023-02-25T10:54:44.348Z,88.21
2023-02-25T10:57:16.455Z,87.71
2023-02-25T10:59:45.212Z,86.32
2023-02-25T11:02:25.726Z,85.56
2023-02-25T11:04:53.653Z,84.55
2023-02-25T11:07:41.887Z,83.52
2023-02-25T11:10:16.305Z,83.23
2023-02-25T11:12:51.108Z,83.18
2023-02-25T11:15:45.147Z,82.48
2023-02-25T11:18:23.383Z,79.92
2023-02-25T11:20:55.172Z,77.14
2023-02-25T11:23:30.018Z,76.92
2023-02-25T11:25:57.092Z,74.38
2023-02-25T11:28:33.209Z,74.21
2023-02-25T11:31:18.877Z,72.71
2023-02-25T11:33:54.822Z,72.88
2023-02-25T11:36:24.927Z,71.66
2023-02-25T11:39:07.840Z,71.85
2023-02-25T11:41:34.501Z,69.74
2023-02-25T11:44:23.727Z,69.52
2023-02-25T11:46:55.578Z,69.55
2023-02-25T11:49:43.009Z,70.99
2023-02-25T11:52:13.978Z,70.39
2023-02-25T11:55:10.076Z,67.68
2023-02-25T11:58:04.528Z,70.97
2023-02-25T12:01:12.425Z,72.63
2023-02-25T12:04:08.298Z,77.74
2023-02-25T12:06:56.735Z,80.40
2023-02-25T12:09:33.440Z,81.92
2023-02-25T12:12:30.876Z,82.01
2023-02-25T12:15:16.121Z,82.19
2023-02-25T12:17:59.707Z,81.91
2023-02-25T12:20:41.621Z,80.47
2023-02-25T12:23:26.368Z,79.81
2023-02-25T12:26:08.385Z,77.92
2023-02-25T12:28:48.762Z,78.32
2023-02-25T12:32:02.512Z,79.61
2023-02-25T12:34:57.358Z,75.41
2023-02-25T12:37:39.403Z,74.47
2023-02-25T12:40:24.499Z,73.90
2023-02-25T12:43:18.937Z,72.90
2023-02-25T12:46:10.412Z,74.27
2023-02-25T12:48:46.437Z,74.45
2023-02-25T12:51:35.698Z,74.00
2023-02-25T12:54:05.345Z,74.27
2023-02-25T12:56:43.772Z,73.74
2023-02-25T12:59:19.240Z,75.23
2023-02-25T13:02:07.468Z,72.79
2023-02-25T13:04:40.935Z,72.64
2023-02-25T13:07:07.493Z,72.26
2023-02-25T13:10:06.438Z,73.09
2023-02-25T13:13:11.659Z,71.89
2023-02-25T13:15:58.702Z,70.11
2023-02-25T13:19:06.280Z,70.21
2023-02-25T13:21:52.027Z,70.31
2023-02-25T13:24:55.184Z,70.50
2023-02-25T13:27:40.036Z,77.10
2023-02-25T13:30:26.831Z,81.68
2023-02-25T13:33:07.627Z,82.06
2023-02-25T13:35:55.726Z,82.39
2023-02-25T13:38:36.964Z,82.83
2023-02-25T13:41:08.132Z,81.88
2023-02-25T13:44:08.267Z,81.53
2023-02-25T13:47:18.031Z,82.57
2023-02-25T13:50:18.447Z,82.72
2023-02-25T13:53:17.617Z,80.43
2023-02-25T13:56:05.359Z,81.29
2023-02-25T13:59:07.025Z,81.34
2023-02-25T14:02:10.524Z,79.43
2023-02-25T14:04:55.996Z,78.09
2023-02-25T14:08:07.620Z,77.82
2023-02-25T14:11:21.737Z,77.74
2023-02-25T14:14:21.390Z,76.03
2023-02-25T14:17:20.688Z,77.20
2023-02-25T14:19:59.451Z,75.76
2023-02-25T14:22:36.038Z,76.73
2023-02-25T14:25:12.879Z,77.55
2023-02-25T14:27:45.232Z,76.92
2023-02-25T14:30:36.940Z,76.40
2023-02-25T14:33:31.578Z,75.98
2023-02-25T14:36:37.014Z,74.03
2023-02-25T14:39:42.267Z,73.96
2023-02-25T14:42:35.389Z,75.34
2023-02-25T14:45:10.903Z,76.35
2023-02-25T14:47:45.615Z,75.11
2023-02-25T14:50:20.301Z,72.06
2023-02-25T14:52:56.017Z,73.03
2023-02-25T14:56:00.673Z,73.11
2023-02-25T14:58:38.154Z,73.03
2023-02-25T15:01:17.182Z,72.61
2023-02-25T15:04:11.170Z,74.26
2023-02-25T15:07:02.118Z,78.49
2023-02-25T15:09:51.048Z,88.62
2023-02-25T15:12:32.311Z,91.97
2023-02-25T15:15:24.692Z,92.46
2023-02-25T15:18:12.810Z,93.04
2023-02-25T15:20:41.294Z,91.54
2023-02-25T15:23:17.786Z,90.62
2023-02-25T15:26:06.258Z,89.66
2023-02-25T15:28:35.224Z,89.40
2023-02-25T15:31:01.912Z,89.89
2023-02-25T15:33:39.401Z,90.64
2023-02-25T15:36:15.184Z,91.60
2023-02-25T15:38:51.245Z,90.79
2023-02-25T15:41:27.087Z,90.15
2023-02-25T15:44:08.970Z,89.32
2023-02-25T15:46:35.728Z,88.36
2023-02-25T15:49:15.124Z,88.96
2023-02-25T15:51:45.278Z,88.18
2023-02-25T15:54:32.124Z,86.47
2023-02-25T15:57:01.607Z,85.44
2023-02-25T15:59:47.489Z,85.13
2023-02-25T16:02:26.456Z,83.50
2023-02-25T16:05:03.338Z,83.34
2023-02-25T16:07:44.300Z,82.61
2023-02-25T16:10:43.609Z,80.07
2023-02-25T16:13:16.703Z,80.43
2023-02-25T16:15:48.460Z,80.31
2023-02-25T16:18:44.217Z,79.06
2023-02-25T16:21:26.876Z,77.77
2023-02-25T16:23:54.489Z,77.91
2023-02-25T16:26:48.937Z,79.57
2023-02-25T16:29:32.627Z,78.67
2023-02-25T16:32:07.565Z,77.95
2023-02-25T16:34:57.114Z,77.27
2023-02-25T16:38:01.850Z,76.36
2023-02-25T16:40:34.308Z,76.79
2023-02-25T16:43:01.262Z,76.85
2023-02-25T16:45:36.098Z,77.57
2023-02-25T16:48:13.255Z,78.78
2023-02-25T16:50:40.365Z,78.39
2023-02-25T16:53:18.544Z,77.77
2023-02-25T16:55:45.588Z,78.14
2023-02-25T16:58:26.634Z,76.13
2023-02-25T17:24:01.209Z,75.06
2023-02-25T17:26:53.248Z,75.77
2023-02-25T18:04:06.298Z,73.34
2023-02-25T18:06:41.571Z,73.01
2023-02-25T18:09:30.448Z,73.10
2023-02-25T18:11:59.846Z,72.63
2023-02-25T18:14:36.006Z,72.25
2023-02-25T18:17:30.357Z,70.81
2023-02-25T18:20:36.894Z,71.85
2023-02-25T18:27:28.941Z,71.32
2023-02-25T18:29:59.540Z,70.30
2023-02-25T18:32:26.192Z,70.63
2023-02-25T18:34:52.998Z,70.45
2023-02-25T18:37:20.213Z,69.53
2023-02-25T18:39:47.844Z,69.00
2023-02-25T18:42:16.605Z,70.04
2023-02-25T18:44:44.968Z,69.66
2023-02-25T18:47:13.926Z,70.28
2023-02-25T18:49:40.555Z,70.52
2023-02-25T18:52:16.298Z,71.09
2023-02-25T18:54:44.170Z,70.79
2023-02-25T18:57:21.665Z,69.92
2023-02-25T18:59:48.386Z,69.57
2023-02-25T19:02:26.146Z,71.44
2023-02-25T19:04:53.968Z,70.93
2023-02-25T19:07:20.650Z,70.45
2023-02-25T19:09:47.396Z,69.56
2023-02-25T19:12:14.562Z,69.74
2023-02-25T19:14:42.600Z,69.46
2023-02-25T19:17:16.927Z,70.16
2023-02-25T19:19:43.753Z,70.07
2023-02-25T19:22:10.930Z,70.84
2023-02-25T19:24:37.780Z,71.60
2023-02-25T19:27:04.355Z,71.97
2023-02-25T19:29:31.059Z,71.61
2023-02-25T19:31:57.743Z,72.79
2023-02-25T19:34:24.484Z,73.16
2023-02-25T19:36:51.044Z,73.08
2023-02-25T19:39:17.765Z,72.95
2023-02-25T19:41:44.369Z,73.23
2023-02-25T19:44:11.084Z,72.05
2023-02-25T19:46:37.735Z,72.26
2023-02-25T19:49:04.485Z,71.94
2023-02-25T19:51:31.040Z,72.17
2023-02-25T20:01:48.366Z,71.86
2023-02-25T20:08:20.927Z,70.89
2023-02-25T20:22:32.122Z,70.54
2023-02-25T20:25:23.387Z,70.67
2023-02-25T20:27:50.370Z,71.13
2023-02-25T20:30:17.249Z,71.24
2023-02-25T20:32:45.327Z,70.78
2023-02-25T20:35:19.465Z,70.88
2023-02-25T20:38:08.407Z,70.32
2023-02-25T20:40:35.192Z,69.52
2023-02-25T20:43:01.884Z,69.92
2023-02-25T20:45:28.831Z,67.50
2023-02-25T20:47:55.767Z,68.70
2023-02-25T20:50:26.973Z,69.12
2023-02-25T20:52:53.824Z,69.53
2023-02-25T20:55:20.502Z,69.84
2023-02-25T20:57:47.170Z,70.32
2023-02-25T21:00:16.484Z,69.96
2023-02-25T21:02:43.363Z,70.35
2023-02-25T21:05:09.994Z,70.52
2023-02-25T21:07:37.743Z,70.65
2023-02-25T21:10:04.725Z,70.31
2023-02-25T21:12:31.479Z,70.24
2023-02-25T21:14:58.052Z,68.03
2023-02-25T21:17:24.758Z,69.82
2023-02-25T21:19:52.523Z,68.69
2023-02-25T21:22:19.202Z,69.55
2023-02-25T21:24:45.863Z,69.86
2023-02-25T21:27:12.492Z,68.46
2023-02-25T21:29:39.059Z,69.01
2023-02-25T21:32:05.849Z,69.22
2023-02-25T21:34:32.561Z,69.06
2023-02-25T21:36:59.241Z,69.73
2023-02-25T21:39:27.292Z,70.06
2023-02-25T21:41:53.997Z,69.94
2023-02-25T21:44:22.138Z,69.95
2023-02-25T21:46:49.510Z,70.05
2023-02-25T21:49:16.127Z,69.34
2023-02-25T21:51:42.882Z,69.87
2023-02-25T21:54:09.703Z,70.69
2023-02-25T21:56:36.433Z,70.54
2023-02-25T21:59:05.441Z,70.36
2023-02-25T22:01:40.184Z,69.75
2023-02-25T22:04:07.845Z,71.21
2023-02-25T22:06:34.576Z,70.95
2023-02-25T22:09:01.430Z,70.28
2023-02-25T22:11:38.228Z,71.31
2023-02-25T22:14:07.475Z,71.42
2023-02-25T22:16:35.584Z,73.40
2023-02-25T22:19:02.841Z,73.73
2023-02-25T22:21:31.299Z,73.04
2023-02-25T22:24:01.054Z,73.52
2023-02-25T22:26:30.458Z,72.96
2023-02-25T22:29:04.466Z,75.05
2023-02-25T22:31:31.914Z,76.53
2023-02-25T22:33:58.892Z,77.11
2023-02-25T22:36:26.891Z,78.83
2023-02-25T22:38:54.133Z,78.59
2023-02-25T22:41:27.687Z,79.85
2023-02-25T22:43:57.388Z,79.05
2023-02-25T22:46:33.204Z,80.24
2023-02-25T22:48:59.913Z,81.36
2023-02-25T22:51:32.495Z,83.46
2023-02-25T22:53:59.708Z,84.58
2023-02-25T22:56:27.308Z,85.02
2023-02-25T22:58:54.641Z,85.22
2023-02-25T23:01:24.079Z,85.15
2023-02-25T23:03:51.641Z,84.15
2023-02-25T23:06:22.131Z,83.24
2023-02-25T23:08:50.096Z,82.68
2023-02-25T23:11:22.823Z,82.80
2023-02-25T23:13:51.819Z,83.49
2023-02-25T23:16:22.668Z,83.34
2023-02-25T23:18:50.226Z,84.01
2023-02-25T23:21:18.705Z,83.58
2023-02-25T23:23:51.353Z,83.58
2023-02-25T23:26:21.934Z,84.02
2023-02-25T23:28:49.023Z,83.41
2023-02-25T23:31:21.229Z,83.09
2023-02-25T23:33:48.381Z,83.96
2023-02-25T23:36:15.870Z,84.33
2023-02-25T23:38:42.479Z,85.03
2023-02-25T23:41:09.427Z,85.89
2023-02-25T23:43:36.118Z,85.71
2023-02-25T23:46:06.806Z,84.59
2023-02-25T23:48:33.617Z,82.91
2023-02-25T23:51:07.377Z,81.29
2023-02-25T23:53:34.843Z,80.65
2023-02-25T23:56:09.549Z,81.13
2023-02-25T23:58:37.059Z,80.26
